createdAt,value
2024-02-18T00:02:09.388Z,28.00
2024-02-18T00:04:36.019Z,24.50
2024-02-18T00:07:03.617Z,26.40
2024-02-18T00:09:31.002Z,26.95
2024-02-18T00:14:24.651Z,25.25
2024-02-18T00:16:51.338Z,29.40
2024-02-18T00:19:18.074Z,29.45
2024-02-18T00:21:44.864Z,28.05
2024-02-18T00:24:11.723Z,27.70
2024-02-18T00:26:48.917Z,24.35
2024-02-18T00:29:24.672Z,27.50
2024-02-18T00:31:51.277Z,31.95
2024-02-18T00:34:24.755Z,32.60
2024-02-18T00:36:52.758Z,29.17
2024-02-18T00:39:19.843Z,27.98
2024-02-18T00:41:46.460Z,32.22
2024-02-18T00:44:13.254Z,32.60
2024-02-18T00:46:47.517Z,29.83
2024-02-18T00:49:20.807Z,30.45
2024-02-18T00:51:47.625Z,32.60
2024-02-18T00:54:14.749Z,33.22
2024-02-18T00:56:41.434Z,27.73
2024-02-18T00:59:08.087Z,26.35
2024-02-18T01:01:34.975Z,31.13
2024-02-18T01:04:02.391Z,33.95
2024-02-18T01:11:22.295Z,28.02
2024-02-18T01:13:49.017Z,30.38
2024-02-18T01:16:15.786Z,29.58
2024-02-18T01:18:44.267Z,31.38
2024-02-18T01:21:11.985Z,29.42
2024-02-18T01:26:05.566Z,25.75
2024-02-18T01:28:32.112Z,28.92
2024-02-18T01:30:59.039Z,28.52
2024-02-18T01:33:25.715Z,28.88
2024-02-18T01:35:52.368Z,28.50
2024-02-18T01:38:18.991Z,29.75
2024-02-18T01:40:45.643Z,27.83
2024-02-18T01:43:14.448Z,29.23
2024-02-18T01:45:41.407Z,27.42
2024-02-18T01:48:09.270Z,27.65
2024-02-18T01:50:36.306Z,24.33
2024-02-18T01:53:04.273Z,25.25
2024-02-18T01:55:33.238Z,21.80
2024-02-18T01:58:01.432Z,23.58
2024-02-18T02:00:29.058Z,24.90
2024-02-18T02:02:55.841Z,24.15
2024-02-18T02:05:23.017Z,23.83
2024-02-18T02:07:53.020Z,22.00
2024-02-18T02:10:20.854Z,21.63
2024-02-18T02:12:48.399Z,21.90
2024-02-18T02:15:15.439Z,25.50
2024-02-18T02:17:42.071Z,21.15
2024-02-18T02:20:10.714Z,22.33
2024-02-18T02:22:38.757Z,21.02
2024-02-18T02:25:07.403Z,22.23
2024-02-18T02:27:41.789Z,20.58
2024-02-18T02:30:08.814Z,19.70
2024-02-18T02:32:38.420Z,19.33
2024-02-18T02:35:05.760Z,21.42
2024-02-18T02:37:32.510Z,17.60
2024-02-18T02:39:59.419Z,19.77
2024-02-18T02:42:26.387Z,18.33
2024-02-18T02:44:53.022Z,18.17
2024-02-18T02:47:19.631Z,19.88
2024-02-18T02:49:46.749Z,17.40
2024-02-18T02:52:13.439Z,16.90
2024-02-18T02:54:40.614Z,17.63
2024-02-18T02:57:07.540Z,17.88
2024-02-18T02:59:34.212Z,18.42
2024-02-18T03:02:00.975Z,18.85
2024-02-18T03:04:28.216Z,18.58
2024-02-18T03:06:55.029Z,21.02
2024-02-18T03:09:22.178Z,18.45
2024-02-18T03:11:49.110Z,17.08
2024-02-18T03:14:15.779Z,19.77
2024-02-18T03:16:42.598Z,19.13
2024-02-18T03:19:09.453Z,19.77
2024-02-18T03:21:36.465Z,19.00
2024-02-18T03:24:03.377Z,17.08
2024-02-18T03:26:30.966Z,18.92
2024-02-18T03:28:57.610Z,18.10
2024-02-18T03:31:24.208Z,16.20
2024-02-18T03:33:50.910Z,18.83
2024-02-18T03:36:17.673Z,17.58
2024-02-18T03:38:44.268Z,17.08
2024-02-18T03:41:10.952Z,18.50
2024-02-18T03:43:37.585Z,17.30
2024-02-18T03:46:04.427Z,19.13
2024-02-18T03:48:31.357Z,14.90
2024-02-18T03:50:58.275Z,15.57
2024-02-18T03:53:24.862Z,18.35
2024-02-18T03:55:51.791Z,18.35
2024-02-18T03:58:18.484Z,16.05
2024-02-18T04:00:48.024Z,15.30
2024-02-18T04:03:15.371Z,17.42
2024-02-18T04:05:45.471Z,17.13
2024-02-18T04:08:12.265Z,17.33
2024-02-18T04:10:38.954Z,17.98
2024-02-18T04:13:05.734Z,21.60
2024-02-18T04:15:32.612Z,18.15
2024-02-18T04:17:59.311Z,18.70
2024-02-18T04:20:26.010Z,17.42
2024-02-18T04:22:52.716Z,17.27
2024-02-18T04:25:19.304Z,15.50
2024-02-18T04:27:46.037Z,20.70
2024-02-18T04:30:13.016Z,17.63
2024-02-18T04:32:39.612Z,18.02
2024-02-18T04:35:06.558Z,18.85
2024-02-18T04:37:33.330Z,18.58
2024-02-18T04:40:00.089Z,18.80
2024-02-18T04:42:26.762Z,19.73
2024-02-18T04:44:53.367Z,18.15
2024-02-18T04:47:20.034Z,19.27
2024-02-18T04:49:46.942Z,16.75
2024-02-18T04:52:13.734Z,18.33
2024-02-18T04:54:40.894Z,17.45
2024-02-18T04:57:08.376Z,19.10
2024-02-18T04:59:37.975Z,19.00
2024-02-18T05:02:04.806Z,17.45
2024-02-18T05:04:32.964Z,17.92
2024-02-18T05:07:00.768Z,20.70
2024-02-18T05:09:27.684Z,20.15
2024-02-18T05:11:54.334Z,21.65
2024-02-18T05:14:21.468Z,21.00
2024-02-18T05:16:48.196Z,20.05
2024-02-18T05:19:15.630Z,20.13
2024-02-18T05:24:11.346Z,20.92
2024-02-18T05:26:37.915Z,20.70
2024-02-18T05:29:04.690Z,20.23
2024-02-18T05:31:31.445Z,19.25
2024-02-18T05:33:58.510Z,21.08
2024-02-18T05:36:25.353Z,18.85
2024-02-18T05:38:52.181Z,18.92
2024-02-18T05:41:19.220Z,19.98
2024-02-18T05:43:45.785Z,20.35
2024-02-18T05:46:12.552Z,21.70
2024-02-18T05:48:40.322Z,20.10
2024-02-18T05:51:07.981Z,20.42
2024-02-18T05:53:35.138Z,18.75
2024-02-18T05:56:02.357Z,21.90
2024-02-18T05:58:28.956Z,17.63
2024-02-18T06:00:55.618Z,18.10
2024-02-18T06:03:22.559Z,19.50
2024-02-18T06:05:49.431Z,18.05
2024-02-18T06:08:16.087Z,18.35
2024-02-18T06:10:42.938Z,17.73
2024-02-18T06:13:09.791Z,20.83
2024-02-18T06:15:36.568Z,23.65
2024-02-18T06:18:03.533Z,21.10
2024-02-18T06:20:30.668Z,19.48
2024-02-18T06:22:57.624Z,18.08
2024-02-18T06:25:24.720Z,17.95
2024-02-18T06:27:52.127Z,17.55
2024-02-18T06:32:46.085Z,18.92
2024-02-18T06:35:12.861Z,19.77
2024-02-18T06:37:40.820Z,19.88
2024-02-18T06:40:08.057Z,18.08
2024-02-18T06:42:34.797Z,18.83
2024-02-18T06:45:01.439Z,18.42
2024-02-18T06:47:28.148Z,19.70
2024-02-18T06:49:54.942Z,18.52
2024-02-18T06:52:23.040Z,18.95
2024-02-18T06:54:49.962Z,19.85
2024-02-18T06:57:16.643Z,18.30
2024-02-18T06:59:43.628Z,21.48
2024-02-18T07:02:11.251Z,17.70
2024-02-18T07:04:38.906Z,17.88
2024-02-18T07:07:05.508Z,18.50
2024-02-18T07:09:32.245Z,19.80
2024-02-18T07:11:58.921Z,18.25
2024-02-18T07:14:25.492Z,17.92
2024-02-18T07:16:52.070Z,17.27
2024-02-18T07:19:18.873Z,19.38
2024-02-18T07:21:45.608Z,16.67
2024-02-18T07:24:12.251Z,18.27
2024-02-18T07:26:39.934Z,19.67
2024-02-18T07:29:06.627Z,16.20
2024-02-18T07:31:33.213Z,16.63
2024-02-18T07:34:00.048Z,18.45
2024-02-18T07:36:28.825Z,16.10
2024-02-18T07:38:57.200Z,16.02
2024-02-18T07:41:26.297Z,17.00
2024-02-18T07:43:53.179Z,18.40
2024-02-18T07:46:20.308Z,18.75
2024-02-18T07:48:47.087Z,16.60
2024-02-18T07:51:13.886Z,17.88
2024-02-18T07:53:40.496Z,15.45
2024-02-18T07:56:07.486Z,14.57
2024-02-18T07:58:34.056Z,15.65
2024-02-18T08:01:00.828Z,15.07
2024-02-18T08:03:27.575Z,15.90
2024-02-18T08:05:54.184Z,17.70
2024-02-18T08:08:20.914Z,17.98
2024-02-18T08:10:48.405Z,17.10
2024-02-18T08:13:15.206Z,16.58
2024-02-18T08:15:41.946Z,16.80
2024-02-18T08:18:10.067Z,14.88
2024-02-18T08:20:41.599Z,12.70
2024-02-18T08:23:08.923Z,16.42
2024-02-18T08:25:36.712Z,13.90
2024-02-18T08:28:03.682Z,16.02
2024-02-18T08:30:30.592Z,13.13
2024-02-18T08:32:57.367Z,13.43
2024-02-18T08:35:24.435Z,12.73
2024-02-18T08:37:54.061Z,13.73
2024-02-18T08:40:20.835Z,13.10
2024-02-18T08:42:47.509Z,14.70
2024-02-18T08:45:14.266Z,12.52
2024-02-18T08:47:40.979Z,12.90
2024-02-18T08:50:08.231Z,14.07
2024-02-18T08:52:34.935Z,13.68
2024-02-18T08:55:01.581Z,13.40
2024-02-18T08:57:28.209Z,13.57
2024-02-18T08:59:54.879Z,13.07
2024-02-18T09:02:22.137Z,11.95
2024-02-18T09:07:15.797Z,10.52
2024-02-18T09:09:42.416Z,13.63
2024-02-18T09:12:09.096Z,11.98
2024-02-18T09:14:35.737Z,10.77
2024-02-18T09:17:03.348Z,12.77
2024-02-18T09:19:30.020Z,12.35
2024-02-18T09:21:56.725Z,11.85
2024-02-18T09:24:23.295Z,9.18
2024-02-18T09:26:49.883Z,12.80
2024-02-18T09:29:16.512Z,10.40
2024-02-18T09:31:43.832Z,11.73
2024-02-18T09:34:10.685Z,11.50
2024-02-18T09:36:37.448Z,10.85
2024-02-18T09:39:04.139Z,9.20
2024-02-18T09:41:32.300Z,9.40
2024-02-18T09:44:07.261Z,9.18
2024-02-18T09:46:38.516Z,8.05
2024-02-18T09:49:09.197Z,9.18
2024-02-18T09:51:36.938Z,8.05
2024-02-18T09:54:07.994Z,7.35
2024-02-18T09:56:34.772Z,4.13
2024-02-18T09:59:01.388Z,2.95
2024-02-18T10:01:28.676Z,4.00
2024-02-18T10:03:55.544Z,2.67
2024-02-18T10:06:22.365Z,3.53
2024-02-18T10:08:56.549Z,4.22
2024-02-18T10:11:23.839Z,2.80
2024-02-18T10:13:53.849Z,4.05
2024-02-18T10:16:20.537Z,3.88
2024-02-18T10:18:47.419Z,4.60
2024-02-18T10:21:15.792Z,6.97
2024-02-18T10:23:43.446Z,3.10
2024-02-18T10:26:12.988Z,5.05
2024-02-18T10:28:42.627Z,3.80
2024-02-18T10:31:10.976Z,3.60
2024-02-18T10:36:10.971Z,5.45
2024-02-18T10:38:43.753Z,6.63
2024-02-18T10:41:31.434Z,7.72
2024-02-18T10:44:00.228Z,7.60
2024-02-18T10:46:28.202Z,7.32
2024-02-18T10:49:01.025Z,7.72
2024-02-18T10:51:40.769Z,8.05
2024-02-18T10:54:12.882Z,7.32
2024-02-18T10:56:41.868Z,7.97
2024-02-18T10:59:23.364Z,6.32
2024-02-18T11:01:56.862Z,5.00
2024-02-18T11:04:26.332Z,4.40
2024-02-18T11:06:55.205Z,4.60
2024-02-18T11:09:23.133Z,5.05
2024-02-18T11:11:52.077Z,5.60
2024-02-18T11:14:20.004Z,4.82
2024-02-18T11:16:48.867Z,6.47
2024-02-18T11:19:16.423Z,6.05
2024-02-18T11:21:48.712Z,6.05
2024-02-18T11:24:15.354Z,5.70
2024-02-18T11:26:41.956Z,7.18
2024-02-18T11:29:08.651Z,5.88
2024-02-18T11:31:35.696Z,6.53
2024-02-18T11:34:02.709Z,6.88
2024-02-18T11:38:58.684Z,6.55
2024-02-18T11:41:33.375Z,7.05
2024-02-18T11:44:13.963Z,6.68
2024-02-18T11:46:42.909Z,6.55
2024-02-18T11:49:09.876Z,5.82
2024-02-18T11:54:06.455Z,6.50
2024-02-18T11:56:33.350Z,5.50
2024-02-18T11:59:00.025Z,6.25
2024-02-18T12:01:27.761Z,8.40
2024-02-18T12:03:58.186Z,5.90
2024-02-18T12:06:25.628Z,6.80
2024-02-18T12:08:52.451Z,8.32
2024-02-18T12:11:19.146Z,5.63
2024-02-18T12:13:45.942Z,6.60
2024-02-18T12:16:12.977Z,7.00
2024-02-18T12:18:40.260Z,7.97
2024-02-18T12:23:43.975Z,6.18
2024-02-18T12:26:10.741Z,6.00
2024-02-18T12:28:37.525Z,7.43
2024-02-18T12:31:04.270Z,6.95
2024-02-18T12:33:32.109Z,6.90
2024-02-18T12:35:59.137Z,7.57
2024-02-18T12:38:25.738Z,6.75
2024-02-18T12:40:56.883Z,7.03
2024-02-18T12:43:57.003Z,5.82
2024-02-18T12:46:13.320Z,8.95
2024-02-18T12:48:40.714Z,7.18
2024-02-18T12:51:15.382Z,6.35
2024-02-18T12:53:43.042Z,6.38
2024-02-18T12:56:11.117Z,6.65
2024-02-18T12:58:37.961Z,5.78
2024-02-18T13:01:09.458Z,5.57
2024-02-18T13:03:36.706Z,6.50
2024-02-18T13:06:04.112Z,5.22
2024-02-18T13:08:30.926Z,5.90
2024-02-18T13:10:58.466Z,6.07
2024-02-18T13:13:25.172Z,6.93
2024-02-18T13:15:53.245Z,7.30
2024-02-18T13:18:20.074Z,8.73
2024-02-18T13:20:46.806Z,6.38
2024-02-18T13:23:13.403Z,9.40
2024-02-18T13:25:40.134Z,7.30
2024-02-18T13:28:07.044Z,5.82
2024-02-18T13:30:33.879Z,6.43
2024-02-18T13:33:00.700Z,6.30
2024-02-18T13:35:27.310Z,7.20
2024-02-18T13:37:53.935Z,5.57
2024-02-18T13:40:20.723Z,8.85
2024-02-18T13:42:47.420Z,6.40
2024-02-18T13:45:14.164Z,7.25
2024-02-18T13:47:40.932Z,7.63
2024-02-18T13:50:09.058Z,5.90
2024-02-18T13:52:35.762Z,6.85
2024-02-18T13:55:02.952Z,7.65
2024-02-18T13:57:29.651Z,6.78
2024-02-18T13:59:57.815Z,7.45
2024-02-18T14:02:24.709Z,6.60
2024-02-18T14:04:52.577Z,5.32
2024-02-18T14:07:21.406Z,6.38
2024-02-18T14:09:50.068Z,7.45
2024-02-18T14:12:17.140Z,9.15
2024-02-18T14:14:49.440Z,6.05
2024-02-18T14:17:16.571Z,7.03
2024-02-18T14:19:43.495Z,5.28
2024-02-18T14:22:10.458Z,7.47
2024-02-18T14:24:37.296Z,6.35
2024-02-18T14:27:04.599Z,8.68
2024-02-18T14:29:31.317Z,6.22
2024-02-18T14:31:57.910Z,5.63
2024-02-18T14:34:24.660Z,6.10
2024-02-18T14:36:51.430Z,7.22
2024-02-18T14:39:18.171Z,7.78
2024-02-18T14:41:44.812Z,6.22
2024-02-18T14:44:11.489Z,7.38
2024-02-18T14:46:38.088Z,5.78
2024-02-18T14:49:04.780Z,6.93
2024-02-18T14:51:31.542Z,5.75
2024-02-18T14:53:58.197Z,6.35
2024-02-18T14:56:24.856Z,7.43
2024-02-18T14:58:51.437Z,8.02
2024-02-18T15:01:20.029Z,7.15
2024-02-18T15:03:46.885Z,6.43
2024-02-18T15:06:14.013Z,5.70
2024-02-18T15:08:40.939Z,5.50
2024-02-18T15:11:07.814Z,5.05
2024-02-18T15:13:34.529Z,7.22
2024-02-18T15:16:01.103Z,6.53
2024-02-18T15:18:27.903Z,6.32
2024-02-18T15:20:54.582Z,7.38
2024-02-18T15:23:21.430Z,6.45
2024-02-18T15:25:52.234Z,7.35
2024-02-18T15:28:19.311Z,5.95
2024-02-18T15:30:46.813Z,5.65
2024-02-18T15:33:13.605Z,5.05
2024-02-18T15:35:41.429Z,5.18
2024-02-18T15:38:08.401Z,5.75
2024-02-18T15:40:35.195Z,7.13
2024-02-18T15:43:02.539Z,4.63
2024-02-18T15:45:29.405Z,5.63
2024-02-18T15:47:57.465Z,5.20
2024-02-18T15:50:24.553Z,6.22
2024-02-18T15:52:51.361Z,6.28
2024-02-18T15:55:20.135Z,6.75
2024-02-18T15:57:47.125Z,10.20
2024-02-18T16:00:15.005Z,7.60
2024-02-18T16:02:41.672Z,8.02
2024-02-18T16:05:08.928Z,8.68
2024-02-18T16:07:35.681Z,10.88
2024-02-18T16:10:02.596Z,9.45
2024-02-18T16:12:29.336Z,8.48
2024-02-18T16:14:55.917Z,7.40
2024-02-18T16:17:25.021Z,9.73
2024-02-18T16:19:53.139Z,9.65
2024-02-18T16:22:19.982Z,11.88
2024-02-18T16:24:48.287Z,9.45
2024-02-18T16:27:14.982Z,14.05
2024-02-18T16:29:41.645Z,11.25
2024-02-18T16:32:10.471Z,13.27
2024-02-18T16:34:37.243Z,14.63
2024-02-18T16:37:04.259Z,12.88
2024-02-18T16:39:36.054Z,14.75
2024-02-18T16:42:04.060Z,17.45
2024-02-18T16:44:30.900Z,15.02
2024-02-18T16:46:57.657Z,15.73
2024-02-18T16:49:24.421Z,17.60
2024-02-18T16:51:51.128Z,24.98
2024-02-18T16:54:17.873Z,17.80
2024-02-18T16:56:44.446Z,18.38
2024-02-18T16:59:11.010Z,20.50
2024-02-18T17:01:37.782Z,21.92
2024-02-18T17:04:04.717Z,19.65
2024-02-18T17:06:31.718Z,19.65
2024-02-18T17:08:58.376Z,20.98
2024-02-18T17:11:24.992Z,23.02
2024-02-18T17:13:53.241Z,21.63
2024-02-18T17:16:20.097Z,20.63
2024-02-18T17:18:46.924Z,20.25
2024-02-18T17:21:13.601Z,19.50
2024-02-18T17:23:40.139Z,19.63
2024-02-18T17:26:06.855Z,20.55
2024-02-18T17:28:33.517Z,22.58
2024-02-18T17:31:00.287Z,20.02
2024-02-18T17:33:28.780Z,22.70
2024-02-18T17:35:55.520Z,20.75
2024-02-18T17:38:22.161Z,20.80
2024-02-18T17:40:48.847Z,18.95
2024-02-18T17:43:15.576Z,22.83
2024-02-18T17:45:42.456Z,22.58
2024-02-18T17:48:09.761Z,20.38
2024-02-18T17:50:39.711Z,19.95
2024-02-18T17:53:08.070Z,21.00
2024-02-18T17:55:34.667Z,18.35
2024-02-18T17:58:01.576Z,20.55
2024-02-18T18:00:29.289Z,21.92
2024-02-18T18:02:58.116Z,19.90
2024-02-18T18:05:24.881Z,20.13
2024-02-18T18:07:55.747Z,20.58
2024-02-18T18:10:23.823Z,22.10
2024-02-18T18:12:55.758Z,21.35
2024-02-18T18:15:23.663Z,21.23
2024-02-18T18:17:50.648Z,26.35
2024-02-18T18:20:17.663Z,25.58
2024-02-18T18:22:49.059Z,25.92
2024-02-18T18:25:16.366Z,22.00
2024-02-18T18:27:43.415Z,24.45
2024-02-18T18:30:10.412Z,20.50
2024-02-18T18:32:37.296Z,20.50
2024-02-18T18:35:05.488Z,23.30
2024-02-18T18:37:32.683Z,25.90
2024-02-18T18:40:00.610Z,25.10
2024-02-18T18:42:28.492Z,21.48
2024-02-18T18:44:55.096Z,19.65
2024-02-18T18:47:21.714Z,19.00
2024-02-18T18:49:52.658Z,22.27
2024-02-18T18:52:19.604Z,20.75
2024-02-18T18:54:46.347Z,17.92
2024-02-18T18:57:14.081Z,17.05
2024-02-18T18:59:40.947Z,17.23
2024-02-18T19:02:07.832Z,16.92
2024-02-18T19:04:34.636Z,15.80
2024-02-18T19:07:04.345Z,16.98
2024-02-18T19:09:34.489Z,16.67
2024-02-18T19:12:01.460Z,15.98
2024-02-18T19:14:28.605Z,16.23
2024-02-18T19:16:55.909Z,15.15
2024-02-18T19:19:25.613Z,17.02
2024-02-18T19:22:00.286Z,15.68
2024-02-18T19:24:27.902Z,15.90
2024-02-18T19:26:54.518Z,16.33
2024-02-18T19:29:24.116Z,18.65
2024-02-18T19:31:55.454Z,13.82
2024-02-18T19:34:22.271Z,14.00
2024-02-18T19:36:51.620Z,15.63
2024-02-18T19:39:18.751Z,16.92
2024-02-18T19:41:47.178Z,14.30
2024-02-18T19:44:14.674Z,17.17
2024-02-18T19:49:12.755Z,14.80
2024-02-18T19:51:48.885Z,14.82
2024-02-18T19:54:15.948Z,14.50
2024-02-18T19:56:43.637Z,13.75
2024-02-18T19:59:12.055Z,13.90
2024-02-18T20:01:38.988Z,13.13
2024-02-18T20:04:05.816Z,13.65
2024-02-18T20:06:32.638Z,14.65
2024-02-18T20:08:59.789Z,14.10
2024-02-18T20:11:29.777Z,13.65
2024-02-18T20:13:58.131Z,17.25
2024-02-18T20:16:24.822Z,14.18
2024-02-18T20:18:53.074Z,15.95
2024-02-18T20:21:20.637Z,16.65
2024-02-18T20:23:47.301Z,15.80
2024-02-18T20:26:20.411Z,16.02
2024-02-18T20:28:48.008Z,15.38
2024-02-18T20:31:21.286Z,15.55
2024-02-18T20:33:49.306Z,13.60
2024-02-18T20:36:17.800Z,17.05
2024-02-18T20:38:45.845Z,16.00
2024-02-18T20:41:13.036Z,14.13
2024-02-18T20:43:39.645Z,15.63
2024-02-18T20:46:06.431Z,13.80
2024-02-18T20:48:33.224Z,14.82
2024-02-18T20:50:59.888Z,12.45
2024-02-18T20:53:26.500Z,13.82
2024-02-18T20:55:53.043Z,15.05
2024-02-18T20:58:21.075Z,15.68
2024-02-18T21:00:48.460Z,14.32
2024-02-18T21:03:15.834Z,15.38
2024-02-18T21:05:43.660Z,15.15
2024-02-18T21:08:10.284Z,13.82
2024-02-18T21:10:36.966Z,12.65
2024-02-18T21:13:04.108Z,16.33
2024-02-18T21:15:30.823Z,13.43
2024-02-18T21:18:00.244Z,15.15
2024-02-18T21:20:27.285Z,15.68
2024-02-18T21:22:54.160Z,16.98
2024-02-18T21:25:21.287Z,14.27
2024-02-18T21:27:47.972Z,12.95
2024-02-18T21:30:14.802Z,14.10
2024-02-18T21:32:41.485Z,13.18
2024-02-18T21:35:08.500Z,13.80
2024-02-18T21:37:38.538Z,14.48
2024-02-18T21:40:07.193Z,13.50
2024-02-18T21:42:35.676Z,14.25
2024-02-18T21:45:02.686Z,12.88
2024-02-18T21:47:29.350Z,12.43
2024-02-18T21:49:56.237Z,16.88
2024-02-18T21:52:23.180Z,16.70
2024-02-18T21:54:51.115Z,20.17
2024-02-18T21:57:20.917Z,16.88
2024-02-18T21:59:47.492Z,17.15
2024-02-18T22:02:14.248Z,20.20
2024-02-18T22:04:41.200Z,18.38
2024-02-18T22:07:16.302Z,16.45
2024-02-18T22:09:45.717Z,16.70
2024-02-18T22:12:12.745Z,20.13
2024-02-18T22:14:39.388Z,14.32
2024-02-18T22:17:07.548Z,16.15
2024-02-18T22:19:34.543Z,13.10
2024-02-18T22:22:01.560Z,19.15
2024-02-18T22:24:28.692Z,15.77
2024-02-18T22:26:55.503Z,15.75
2024-02-18T22:29:22.472Z,18.10
2024-02-18T22:31:49.001Z,13.25
2024-02-18T22:34:18.750Z,14.35
2024-02-18T22:36:45.581Z,15.02
2024-02-18T22:39:13.529Z,14.68
2024-02-18T22:41:42.891Z,12.98
2024-02-18T22:44:09.486Z,14.55
2024-02-18T22:46:36.123Z,15.60
2024-02-18T22:49:03.168Z,12.93
2024-02-18T22:51:29.932Z,13.48
2024-02-18T22:53:56.593Z,12.50
2024-02-18T22:56:23.211Z,12.60
2024-02-18T22:58:50.507Z,13.57
2024-02-18T23:01:17.142Z,13.68
2024-02-18T23:03:43.869Z,13.38
2024-02-18T23:06:10.555Z,15.90
2024-02-18T23:08:40.726Z,17.25
2024-02-18T23:11:09.027Z,16.85
2024-02-18T23:13:35.900Z,14.77
2024-02-18T23:16:02.736Z,17.73
2024-02-18T23:18:29.488Z,18.75
2024-02-18T23:20:56.231Z,15.05
2024-02-18T23:23:22.849Z,16.38
2024-02-18T23:25:49.479Z,17.77
2024-02-18T23:28:16.215Z,15.88
2024-02-18T23:30:43.126Z,17.73
2024-02-18T23:33:09.927Z,14.90
2024-02-18T23:35:36.521Z,17.85
2024-02-18T23:38:05.226Z,14.52
2024-02-18T23:40:33.044Z,16.23
2024-02-18T23:43:00.022Z,15.52
2024-02-18T23:45:26.683Z,13.85
2024-02-18T23:47:53.322Z,11.95
2024-02-18T23:50:19.900Z,13.50
2024-02-18T23:52:46.539Z,13.02
2024-02-18T23:55:13.218Z,13.55
2024-02-18T23:57:39.859Z,12.48
